createdAt,value
2018-12-22T00:02:23.181Z,0.10
2018-12-22T00:04:51.377Z,0.43
2018-12-22T00:07:19.857Z,0.20
2018-12-22T00:09:48.053Z,0.20
2018-12-22T00:12:16.237Z,0.10
2018-12-22T00:14:44.438Z,0.10
2018-12-22T00:17:12.629Z,0.20
2018-12-22T00:19:40.804Z,0.20
2018-12-22T00:22:08.992Z,0.10
2018-12-22T00:24:37.185Z,0.20
2018-12-22T00:27:05.369Z,0.20
2018-12-22T00:29:33.565Z,0.20
2018-12-22T00:32:01.853Z,0.10
2018-12-22T00:34:30.040Z,0.10
2018-12-22T00:36:58.229Z,0.20
2018-12-22T00:39:26.437Z,0.37
2018-12-22T00:41:54.657Z,0.20
2018-12-22T00:44:22.952Z,0.33
2018-12-22T00:46:51.153Z,0.30
2018-12-22T00:49:19.351Z,0.13
2018-12-22T00:51:47.532Z,0.27
2018-12-22T00:54:18.041Z,0.20
2018-12-22T00:56:46.153Z,0.77
2018-12-22T00:59:14.597Z,0.20
2018-12-22T01:01:42.881Z,0.30
2018-12-22T01:04:11.064Z,0.20
2018-12-22T01:06:39.252Z,0.40
2018-12-22T01:09:07.765Z,1.23
2018-12-22T01:11:36.236Z,0.30
2018-12-22T01:14:04.929Z,0.30
2018-12-22T01:16:33.425Z,0.40
2018-12-22T01:19:01.641Z,1.50
2018-12-22T01:21:29.941Z,0.30
2018-12-22T01:23:58.133Z,0.50
2018-12-22T01:26:26.496Z,0.20
2018-12-22T01:28:54.989Z,0.30
2018-12-22T01:31:23.186Z,0.30
2018-12-22T01:33:51.604Z,0.37
2018-12-22T01:36:20.064Z,0.40
2018-12-22T01:38:48.244Z,0.30
2018-12-22T01:41:16.441Z,0.50
2018-12-22T01:43:44.912Z,0.20
2018-12-22T01:46:13.110Z,0.30
2018-12-22T01:48:41.577Z,0.33
2018-12-22T01:51:09.764Z,0.20
2018-12-22T01:53:37.948Z,0.30
2018-12-22T01:56:06.173Z,0.70
2018-12-22T01:58:34.398Z,0.30
2018-12-22T02:01:02.602Z,0.30
2018-12-22T02:03:30.789Z,0.40
2018-12-22T02:05:58.974Z,0.20
2018-12-22T02:08:27.664Z,0.30
2018-12-22T02:10:56.377Z,0.27
2018-12-22T02:13:24.563Z,1.13
2018-12-22T02:15:52.781Z,0.20
2018-12-22T02:18:20.972Z,0.20
2018-12-22T02:20:49.148Z,0.30
2018-12-22T02:23:17.341Z,0.20
2018-12-22T02:25:45.856Z,0.33
2018-12-22T02:28:14.137Z,0.40
2018-12-22T02:30:42.316Z,0.30
2018-12-22T02:33:11.022Z,0.40
2018-12-22T02:35:39.235Z,0.40
2018-12-22T02:38:07.438Z,0.77
2018-12-22T02:40:35.621Z,0.40
2018-12-22T02:43:03.819Z,0.20
2018-12-22T02:45:32.002Z,0.30
2018-12-22T02:48:00.459Z,0.30
2018-12-22T02:50:28.644Z,0.40
2018-12-22T02:52:57.104Z,0.40
2018-12-22T02:55:25.289Z,0.30
2018-12-22T02:57:53.480Z,0.40
2018-12-22T03:00:21.668Z,0.30
2018-12-22T03:02:49.856Z,0.40
2018-12-22T03:08:08.805Z,1.83
2018-12-22T03:10:37.249Z,0.30
2018-12-22T03:13:05.751Z,0.30
2018-12-22T03:15:33.948Z,0.30
2018-12-22T03:18:02.416Z,0.30
2018-12-22T03:20:30.602Z,2.23
2018-12-22T03:22:58.793Z,0.97
2018-12-22T03:25:26.982Z,0.40
2018-12-22T03:27:55.176Z,0.40
2018-12-22T03:30:23.370Z,0.20
2018-12-22T03:32:51.833Z,0.23
2018-12-22T03:35:20.108Z,0.27
2018-12-22T03:37:48.338Z,0.30
2018-12-22T03:40:16.562Z,0.40
2018-12-22T03:42:44.785Z,0.33
2018-12-22T03:45:12.990Z,0.40
2018-12-22T03:47:41.512Z,0.63
2018-12-22T03:50:09.697Z,0.83
2018-12-22T03:52:37.897Z,0.10
2018-12-22T03:55:06.429Z,0.20
2018-12-22T03:57:34.652Z,0.23
2018-12-22T04:00:03.021Z,0.20
2018-12-22T04:02:31.320Z,0.30
2018-12-22T04:04:59.589Z,0.20
2018-12-22T04:07:28.010Z,0.17
2018-12-22T04:09:56.199Z,0.10
2018-12-22T04:12:24.485Z,0.10
2018-12-22T04:14:52.676Z,0.40
2018-12-22T04:17:20.872Z,0.20
2018-12-22T04:19:49.079Z,0.20
2018-12-22T04:22:17.309Z,0.50
2018-12-22T04:24:45.537Z,0.10
2018-12-22T04:27:13.755Z,0.10
2018-12-22T04:29:42.264Z,0.20
2018-12-22T04:32:10.471Z,0.20
2018-12-22T04:34:38.961Z,1.03
2018-12-22T04:37:07.156Z,0.30
2018-12-22T04:39:35.351Z,0.10
2018-12-22T04:42:03.628Z,0.40
2018-12-22T04:44:31.828Z,0.10
2018-12-22T04:47:00.012Z,0.30
2018-12-22T04:49:28.214Z,1.90
2018-12-22T04:51:56.400Z,0.10
2018-12-22T04:54:24.605Z,0.20
2018-12-22T04:56:53.084Z,1.33
2018-12-22T04:59:21.410Z,0.10
2018-12-22T05:01:49.728Z,0.10
2018-12-22T05:04:17.934Z,0.10
2018-12-22T05:06:46.128Z,0.10
2018-12-22T05:09:14.808Z,0.27
2018-12-22T05:11:43.000Z,0.20
2018-12-22T05:14:11.298Z,0.20
2018-12-22T05:16:39.493Z,0.20
2018-12-22T05:19:07.786Z,0.20
2018-12-22T05:21:35.982Z,0.10
2018-12-22T05:24:04.269Z,0.10
2018-12-22T05:26:32.458Z,0.20
2018-12-22T05:29:00.658Z,0.20
2018-12-22T05:31:28.968Z,0.10
2018-12-22T05:33:57.169Z,0.20
2018-12-22T05:36:25.369Z,0.10
2018-12-22T05:38:53.626Z,0.10
2018-12-22T05:41:21.930Z,0.10
2018-12-22T05:43:50.136Z,0.30
2018-12-22T05:46:18.437Z,0.20
2018-12-22T05:48:46.980Z,0.20
2018-12-22T05:51:15.269Z,0.30
2018-12-22T05:53:43.481Z,0.20
2018-12-22T05:56:11.874Z,0.27
2018-12-22T05:58:40.140Z,0.17
2018-12-22T06:01:08.339Z,0.20
2018-12-22T06:03:36.532Z,0.30
2018-12-22T06:06:04.811Z,0.10
2018-12-22T06:08:33.014Z,0.10
2018-12-22T06:11:01.430Z,0.17
2018-12-22T06:13:30.405Z,0.27
2018-12-22T06:15:58.609Z,0.20
2018-12-22T06:18:26.897Z,0.20
2018-12-22T06:20:55.438Z,0.30
2018-12-22T06:23:23.774Z,0.50
2018-12-22T06:25:51.997Z,0.20
2018-12-22T06:28:20.201Z,0.20
2018-12-22T06:30:48.436Z,0.20
2018-12-22T06:33:16.649Z,0.17
2018-12-22T06:35:45.012Z,0.27
2018-12-22T06:38:13.220Z,0.37
2018-12-22T06:40:42.033Z,2.77
2018-12-22T06:43:10.324Z,0.67
2018-12-22T06:45:38.785Z,0.20
2018-12-22T06:48:07.000Z,0.30
2018-12-22T06:50:35.976Z,0.20
2018-12-22T06:53:04.372Z,0.27
2018-12-22T06:55:32.629Z,1.27
2018-12-22T06:58:00.864Z,0.23
2018-12-22T07:00:29.317Z,0.50
2018-12-22T07:02:57.522Z,0.67
2018-12-22T07:05:25.725Z,0.20
2018-12-22T07:07:54.030Z,0.17
2018-12-22T07:10:22.458Z,0.93
2018-12-22T07:12:50.699Z,0.47
2018-12-22T07:15:19.018Z,0.20
2018-12-22T07:17:47.208Z,1.03
2018-12-22T07:20:16.068Z,0.40
2018-12-22T07:22:44.389Z,0.23
2018-12-22T07:25:12.902Z,0.10
2018-12-22T07:27:41.411Z,0.30
2018-12-22T07:30:10.240Z,0.23
2018-12-22T07:32:38.458Z,0.27
2018-12-22T07:35:06.743Z,0.23
2018-12-22T07:37:34.942Z,1.53
2018-12-22T07:40:03.393Z,0.20
2018-12-22T07:42:31.917Z,0.20
2018-12-22T07:45:00.176Z,0.30
2018-12-22T07:47:28.624Z,0.23
2018-12-22T07:49:56.816Z,0.43
2018-12-22T07:52:25.005Z,0.30
2018-12-22T07:54:53.221Z,0.40
2018-12-22T07:57:21.550Z,1.33
2018-12-22T07:59:49.774Z,0.40
2018-12-22T08:02:18.006Z,0.50
2018-12-22T08:04:46.533Z,1.53
2018-12-22T08:07:15.056Z,0.17
2018-12-22T08:09:43.252Z,0.37
2018-12-22T08:12:11.469Z,0.30
2018-12-22T08:14:39.668Z,0.20
2018-12-22T08:17:07.856Z,0.40
2018-12-22T08:19:36.149Z,0.30
2018-12-22T08:22:04.446Z,0.20
2018-12-22T08:24:32.641Z,0.47
2018-12-22T08:27:00.829Z,0.37
2018-12-22T08:29:29.281Z,0.40
2018-12-22T08:31:57.712Z,0.47
2018-12-22T08:34:25.931Z,0.30
2018-12-22T08:36:54.508Z,3.37
2018-12-22T08:39:22.920Z,0.33
2018-12-22T08:41:51.430Z,0.20
2018-12-22T08:44:19.678Z,0.10
2018-12-22T08:46:47.892Z,0.10
2018-12-22T08:49:16.095Z,1.50
2018-12-22T08:51:44.294Z,0.10
2018-12-22T08:54:12.492Z,0.13
2018-12-22T08:56:40.780Z,0.40
2018-12-22T08:59:08.988Z,0.30
2018-12-22T09:01:37.185Z,0.67
2018-12-22T09:04:05.409Z,0.20
2018-12-22T09:06:33.599Z,0.43
2018-12-22T09:09:02.139Z,0.17
2018-12-22T09:11:30.330Z,0.50
2018-12-22T09:13:58.603Z,0.30
2018-12-22T09:16:26.845Z,0.17
2018-12-22T09:18:55.036Z,0.30
2018-12-22T09:21:23.234Z,0.57
2018-12-22T09:23:51.736Z,0.30
2018-12-22T09:26:20.037Z,2.67
2018-12-22T09:28:48.270Z,0.30
2018-12-22T09:31:16.495Z,0.23
2018-12-22T09:33:44.706Z,0.83
2018-12-22T09:36:13.297Z,0.37
2018-12-22T09:38:41.825Z,0.70
2018-12-22T09:41:10.024Z,0.30
2018-12-22T09:43:38.229Z,0.57
2018-12-22T09:46:06.736Z,0.30
2018-12-22T09:48:34.927Z,0.77
2018-12-22T09:51:03.520Z,0.50
2018-12-22T09:53:32.036Z,0.30
2018-12-22T09:56:00.529Z,0.80
2018-12-22T09:58:28.721Z,1.67
2018-12-22T10:00:56.921Z,1.27
2018-12-22T10:03:25.112Z,1.13
2018-12-22T10:05:53.313Z,0.40
2018-12-22T10:08:21.505Z,0.60
2018-12-22T10:10:49.705Z,0.50
2018-12-22T10:13:18.293Z,2.17
2018-12-22T10:15:46.527Z,1.87
2018-12-22T10:18:14.749Z,3.10
2018-12-22T10:20:42.986Z,1.83
2018-12-22T10:23:11.185Z,0.40
2018-12-22T10:25:39.916Z,0.87
2018-12-22T10:28:08.176Z,2.37
2018-12-22T10:30:36.371Z,0.77
2018-12-22T10:33:06.097Z,1.00
2018-12-22T10:35:34.749Z,1.03
2018-12-22T10:38:03.030Z,1.03
2018-12-22T10:40:31.229Z,1.53
2018-12-22T10:42:59.453Z,0.30
2018-12-22T10:45:27.745Z,0.70
2018-12-22T10:47:55.937Z,0.47
2018-12-22T10:50:24.136Z,0.77
2018-12-22T10:52:52.335Z,15.60
2018-12-22T10:55:20.541Z,1.43
2018-12-22T10:57:48.730Z,1.20
2018-12-22T11:00:18.182Z,1.47
2018-12-22T11:02:46.406Z,2.77
2018-12-22T11:05:16.242Z,1.97
2018-12-22T11:07:44.607Z,0.40
2018-12-22T11:10:18.417Z,0.50
2018-12-22T11:12:46.609Z,0.53
2018-12-22T11:15:14.816Z,1.03
2018-12-22T11:17:43.244Z,1.23
2018-12-22T11:20:11.444Z,0.70
2018-12-22T11:22:39.929Z,4.30
2018-12-22T11:25:15.072Z,1.50
2018-12-22T11:27:43.373Z,2.27
2018-12-22T11:30:19.636Z,3.50
2018-12-22T11:32:47.833Z,0.80
2018-12-22T11:35:16.028Z,1.47
2018-12-22T11:37:44.397Z,2.83
2018-12-22T11:40:12.628Z,1.33
2018-12-22T11:42:47.673Z,2.23
2018-12-22T11:45:11.071Z,1.43
2018-12-22T11:48:49.873Z,1.53
2018-12-22T11:51:18.232Z,2.03
2018-12-22T11:53:46.517Z,2.13
2018-12-22T11:56:14.720Z,1.83
2018-12-22T11:58:42.909Z,1.37
2018-12-22T12:01:11.110Z,2.67
2018-12-22T12:03:39.337Z,1.70
2018-12-22T12:06:07.566Z,3.47
2018-12-22T12:08:35.777Z,3.67
2018-12-22T12:11:03.985Z,2.67
2018-12-22T12:13:32.184Z,1.90
2018-12-22T12:16:09.684Z,3.87
2018-12-22T12:19:42.742Z,2.67
2018-12-22T12:22:10.937Z,0.90
2018-12-22T12:24:39.244Z,3.50
2018-12-22T12:27:07.472Z,2.00
2018-12-22T12:29:35.706Z,1.63
2018-12-22T12:32:04.041Z,2.43
2018-12-22T12:34:32.241Z,1.67
2018-12-22T12:37:00.440Z,3.27
2018-12-22T12:39:28.857Z,2.00
2018-12-22T12:41:57.504Z,2.47
2018-12-22T12:44:25.960Z,2.47
2018-12-22T12:46:54.863Z,2.50
2018-12-22T12:49:23.552Z,6.53
2018-12-22T12:51:51.837Z,3.57
2018-12-22T12:54:21.241Z,2.30
2018-12-22T12:56:52.212Z,1.77
2018-12-22T12:59:20.652Z,2.37
2018-12-22T13:01:49.500Z,4.77
2018-12-22T13:04:17.829Z,2.73
2018-12-22T13:06:46.118Z,2.60
2018-12-22T13:09:15.909Z,2.73
2018-12-22T13:11:44.299Z,2.70
2018-12-22T13:14:16.355Z,1.30
2018-12-22T13:16:44.650Z,3.23
2018-12-22T13:19:12.874Z,2.50
2018-12-22T13:21:43.308Z,2.73
2018-12-22T13:24:11.544Z,3.53
2018-12-22T13:26:39.828Z,1.47
2018-12-22T13:29:08.357Z,5.47
2018-12-22T13:31:36.616Z,2.00
2018-12-22T13:34:05.824Z,1.70
2018-12-22T13:36:34.887Z,3.03
2018-12-22T13:39:30.129Z,3.77
2018-12-22T13:41:58.336Z,2.50
2018-12-22T13:44:26.731Z,4.60
2018-12-22T13:46:54.928Z,3.90
2018-12-22T13:49:23.200Z,5.93
2018-12-22T13:51:51.593Z,5.13
2018-12-22T13:54:23.891Z,3.47
2018-12-22T13:56:52.118Z,3.27
2018-12-22T13:59:20.504Z,1.53
2018-12-22T14:01:52.988Z,2.47
2018-12-22T14:04:22.216Z,2.63
2018-12-22T14:06:50.485Z,3.00
2018-12-22T14:09:18.753Z,5.53
2018-12-22T14:11:46.964Z,1.80
2018-12-22T14:14:18.664Z,1.03
2018-12-22T14:16:52.976Z,2.63
2018-12-22T14:19:21.356Z,3.03
2018-12-22T14:21:50.341Z,2.03
2018-12-22T14:24:50.694Z,1.40
2018-12-22T14:27:19.038Z,2.53
2018-12-22T14:29:47.248Z,3.47
2018-12-22T14:32:15.459Z,7.80
2018-12-22T14:34:49.107Z,3.03
2018-12-22T14:37:17.304Z,1.77
2018-12-22T14:39:45.508Z,4.33
2018-12-22T14:42:13.709Z,3.13
2018-12-22T14:44:41.998Z,2.03
2018-12-22T14:47:10.532Z,1.63
2018-12-22T14:49:38.724Z,3.23
2018-12-22T14:52:07.493Z,2.60
2018-12-22T14:54:35.781Z,5.83
2018-12-22T14:57:04.072Z,2.97
2018-12-22T14:59:32.299Z,8.67
2018-12-22T15:02:01.933Z,3.17
2018-12-22T15:04:30.365Z,3.83
2018-12-22T15:06:58.602Z,1.77
2018-12-22T15:09:26.833Z,2.03
2018-12-22T15:11:55.053Z,1.97
2018-12-22T15:14:23.293Z,1.17
2018-12-22T15:16:51.456Z,1.87
2018-12-22T15:19:19.924Z,3.07
2018-12-22T15:21:53.511Z,1.30
2018-12-22T15:24:21.721Z,3.07
2018-12-22T15:26:50.507Z,4.40
2018-12-22T15:29:19.150Z,3.17
2018-12-22T15:31:47.364Z,3.37
2018-12-22T15:34:15.624Z,2.20
2018-12-22T15:36:44.148Z,1.17
2018-12-22T15:39:12.464Z,3.43
2018-12-22T15:41:40.651Z,3.53
2018-12-22T15:44:08.901Z,1.67
2018-12-22T15:46:37.189Z,2.97
2018-12-22T15:49:05.397Z,2.43
2018-12-22T15:51:33.610Z,2.00
2018-12-22T15:54:01.810Z,2.53
2018-12-22T15:56:30.012Z,2.60
2018-12-22T15:58:58.234Z,3.03
2018-12-22T16:01:26.463Z,3.57
2018-12-22T16:03:54.757Z,2.90
2018-12-22T16:06:22.969Z,3.10
2018-12-22T16:08:51.189Z,4.10
2018-12-22T16:11:19.381Z,7.83
2018-12-22T16:13:47.841Z,5.10
2018-12-22T16:16:16.032Z,4.07
2018-12-22T16:18:44.229Z,3.50
2018-12-22T16:21:12.441Z,3.00
2018-12-22T16:23:40.880Z,3.50
2018-12-22T16:26:09.480Z,4.17
2018-12-22T16:28:42.674Z,5.67
2018-12-22T16:31:10.852Z,3.63
2018-12-22T16:33:39.057Z,10.00
2018-12-22T16:36:07.253Z,6.33
2018-12-22T16:38:35.858Z,7.90
2018-12-22T16:41:04.187Z,7.63
2018-12-22T16:43:32.526Z,5.13
2018-12-22T16:46:00.725Z,6.43
2018-12-22T16:48:29.317Z,8.77
2018-12-22T16:50:57.508Z,8.57
2018-12-22T16:53:26.012Z,8.17
2018-12-22T16:55:54.512Z,6.23
2018-12-22T16:58:33.036Z,3.30
2018-12-22T17:01:18.497Z,5.30
2018-12-22T17:03:46.858Z,6.27
2018-12-22T17:06:15.860Z,3.67
2018-12-22T17:08:44.149Z,3.03
2018-12-22T17:11:12.340Z,2.70
2018-12-22T17:13:41.347Z,3.60
2018-12-22T17:16:09.571Z,5.37
2018-12-22T17:18:37.778Z,2.73
2018-12-22T17:21:14.560Z,4.97
2018-12-22T17:23:50.887Z,4.00
2018-12-22T17:26:19.884Z,2.60
2018-12-22T17:28:48.156Z,2.23
2018-12-22T17:31:16.336Z,2.07
2018-12-22T17:33:44.608Z,2.33
2018-12-22T17:36:12.880Z,1.90
2018-12-22T17:38:41.077Z,3.37
2018-12-22T17:41:09.263Z,1.73
2018-12-22T17:43:38.992Z,2.00
2018-12-22T17:46:07.221Z,2.87
2018-12-22T17:48:35.426Z,1.73
2018-12-22T17:51:03.833Z,3.17
2018-12-22T17:53:32.042Z,1.97
2018-12-22T17:56:00.242Z,4.73
2018-12-22T17:58:28.418Z,2.40
2018-12-22T18:00:56.880Z,1.43
2018-12-22T18:03:29.081Z,1.50
2018-12-22T18:05:57.288Z,4.70
2018-12-22T18:08:25.564Z,3.57
2018-12-22T18:10:53.748Z,4.83
2018-12-22T18:13:21.928Z,3.70
2018-12-22T18:15:50.457Z,1.77
2018-12-22T18:18:18.684Z,2.03
2018-12-22T18:20:46.880Z,2.97
2018-12-22T18:23:15.060Z,4.57
2018-12-22T18:25:43.240Z,5.87
2018-12-22T18:28:11.441Z,2.90
2018-12-22T18:30:39.655Z,2.10
2018-12-22T18:33:07.863Z,1.40
2018-12-22T18:35:36.228Z,3.53
2018-12-22T18:38:04.504Z,2.23
2018-12-22T18:40:32.686Z,1.67
2018-12-22T18:43:01.325Z,3.77
2018-12-22T18:45:29.499Z,1.57
2018-12-22T18:47:57.680Z,1.43
2018-12-22T18:50:27.088Z,1.17
2018-12-22T18:52:55.560Z,3.73
2018-12-22T18:55:23.963Z,2.70
2018-12-22T18:57:54.438Z,3.93
2018-12-22T19:00:23.744Z,0.60
2018-12-22T19:02:52.420Z,1.43
2018-12-22T19:05:22.247Z,1.90
2018-12-22T19:07:53.122Z,1.67
2018-12-22T19:10:28.536Z,1.60
2018-12-22T19:12:56.744Z,2.40
2018-12-22T19:15:24.977Z,2.13
2018-12-22T19:17:53.146Z,1.83
2018-12-22T19:20:25.572Z,1.70
2018-12-22T19:22:53.847Z,2.23
2018-12-22T19:25:22.007Z,3.33
2018-12-22T19:27:50.193Z,2.43
2018-12-22T19:30:18.376Z,2.80
2018-12-22T19:32:46.636Z,4.33
2018-12-22T19:35:14.808Z,2.77
2018-12-22T19:37:42.989Z,3.17
2018-12-22T19:40:11.168Z,2.10
2018-12-22T19:42:39.348Z,2.37
2018-12-22T19:45:07.813Z,4.87
2018-12-22T19:47:35.999Z,4.23
2018-12-22T19:50:04.732Z,2.90
2018-12-22T19:52:33.423Z,5.10
2018-12-22T19:55:01.614Z,2.07
2018-12-22T19:57:29.828Z,2.73
2018-12-22T19:59:58.038Z,2.17
2018-12-22T20:02:26.230Z,3.63
2018-12-22T20:04:54.416Z,1.63
2018-12-22T20:07:22.592Z,5.50
2018-12-22T20:09:50.768Z,3.97
2018-12-22T20:12:18.949Z,1.80
2018-12-22T20:14:47.133Z,4.13
2018-12-22T20:17:15.643Z,3.40
2018-12-22T20:19:43.824Z,5.33
2018-12-22T20:22:12.017Z,4.37
2018-12-22T20:24:40.280Z,3.70
2018-12-22T20:27:08.485Z,2.97
2018-12-22T20:29:36.652Z,5.77
2018-12-22T20:32:04.828Z,3.10
2018-12-22T20:34:33.000Z,3.10
2018-12-22T20:37:01.176Z,2.13
2018-12-22T20:39:29.349Z,5.60
2018-12-22T20:41:57.599Z,5.90
2018-12-22T20:44:25.804Z,6.20
2018-12-22T20:46:53.988Z,3.27
2018-12-22T20:49:22.176Z,3.43
2018-12-22T20:51:50.668Z,2.63
2018-12-22T20:54:18.835Z,4.03
2018-12-22T20:56:47.322Z,10.67
2018-12-22T20:59:15.496Z,6.13
2018-12-22T21:01:43.765Z,7.10
2018-12-22T21:04:19.769Z,3.17
2018-12-22T21:06:42.781Z,4.67
2018-12-22T21:09:10.980Z,8.47
2018-12-22T21:11:39.344Z,3.67
2018-12-22T21:14:07.532Z,4.90
2018-12-22T21:16:35.710Z,4.67
2018-12-22T21:19:04.011Z,2.70
2018-12-22T21:21:32.940Z,2.37
2018-12-22T21:24:01.713Z,4.67
2018-12-22T21:26:29.980Z,7.27
2018-12-22T21:28:58.414Z,3.53
2018-12-22T21:31:26.626Z,5.53
2018-12-22T21:33:54.822Z,2.97
2018-12-22T21:36:23.004Z,4.03
2018-12-22T21:38:51.612Z,5.60
2018-12-22T21:41:19.784Z,4.27
2018-12-22T21:43:47.968Z,2.87
2018-12-22T21:46:16.473Z,4.90
2018-12-22T21:48:45.022Z,5.37
2018-12-22T21:51:13.188Z,3.63
2018-12-22T21:53:41.373Z,1.67
2018-12-22T21:56:09.552Z,2.60
2018-12-22T21:58:37.732Z,10.43
2018-12-22T22:01:06.001Z,7.17
2018-12-22T22:03:34.208Z,6.90
2018-12-22T22:06:02.373Z,7.33
2018-12-22T22:08:30.635Z,4.07
2018-12-22T22:10:59.053Z,5.27
2018-12-22T22:13:27.302Z,4.20
2018-12-22T22:15:55.523Z,6.40
2018-12-22T22:18:23.759Z,7.67
2018-12-22T22:20:51.966Z,5.60
2018-12-22T22:23:20.209Z,1.73
2018-12-22T22:25:49.138Z,4.50
2018-12-22T22:28:17.334Z,3.27
2018-12-22T22:30:45.525Z,5.60
2018-12-22T22:33:14.006Z,2.80
2018-12-22T22:35:42.185Z,4.03
2018-12-22T22:38:10.473Z,3.80
2018-12-22T22:40:38.919Z,5.97
2018-12-22T22:43:07.108Z,4.83
2018-12-22T22:45:35.494Z,5.50
2018-12-22T22:48:03.789Z,2.80
2018-12-22T22:50:32.304Z,7.43
2018-12-22T22:53:00.596Z,4.60
2018-12-22T22:55:28.784Z,3.83
2018-12-22T22:57:56.970Z,8.17
2018-12-22T23:00:29.417Z,4.27
2018-12-22T23:02:57.646Z,8.13
2018-12-22T23:05:25.862Z,5.20
2018-12-22T23:07:54.076Z,3.30
2018-12-22T23:10:22.271Z,1.87
2018-12-22T23:12:50.453Z,3.53
2018-12-22T23:15:18.889Z,2.47
2018-12-22T23:17:47.081Z,3.93
2018-12-22T23:20:15.275Z,5.17
2018-12-22T23:22:43.465Z,4.40
2018-12-22T23:25:11.836Z,4.07
2018-12-22T23:27:40.021Z,4.20
2018-12-22T23:30:08.785Z,4.93
2018-12-22T23:32:36.978Z,1.90
2018-12-22T23:35:05.726Z,3.43
2018-12-22T23:37:33.932Z,4.40
2018-12-22T23:40:02.216Z,2.27
2018-12-22T23:42:30.401Z,3.77
2018-12-22T23:44:59.860Z,2.13
2018-12-22T23:47:28.162Z,2.53
2018-12-22T23:49:56.373Z,4.67
2018-12-22T23:52:24.602Z,8.60
2018-12-22T23:54:52.821Z,4.23
2018-12-22T23:57:21.108Z,4.97
2018-12-22T23:59:49.305Z,3.77
